AirNav   Air Wisconsin Up To $57,000 Bonus
 
 1012 users online  

7NC2 Pine Island Airport
Corolla, North Carolina, USA

GOING TO COROLLA?


FAA INFORMATION EFFECTIVE 19 MAY 2022

Location

FAA Identifier: 7NC2
Lat/Long: 36-15-12.5830N 075-47-18.6850W
36-15.209717N 075-47.311417W
36.2534953,-75.7885236
(estimated)
Elevation: 16 ft. / 5 m (estimated)
Variation: 09W (1985)
From city: 9 miles S of COROLLA, NC
Time zone: UTC -4 (UTC -5 during Standard Time)
Zip code: 27927

Airport Operations

Airport use: Private use. Permission required prior to landing
Activation date: 06/1987
Control tower: no
ARTCC: WASHINGTON CENTER
FSS: RALEIGH FLIGHT SERVICE STATION
Attendance: UNATNDD
Wind indicator: yes
Segmented circle: no

Airport Communications

WX AWOS-3 at ONX (14 nm NW): 119.775 (252-453-8939)
WX AWOS-3 at FFA (15 nm S): 118.075 (252-449-0698)
WX ASOS at ECG (19 nm W): 124.375 (252-338-4750)

Nearby radio navigation aids

VOR radial/distance  VOR name  Freq  Var
ECGr098/18.7ELIZABETH CITY VOR/DME112.5007W
RBXr355/20.5WRIGHT BROTHERS VOR/DME111.6008W

 
NDB name  Hdg/Dist  Freq  Var  ID
MANTEO356/20.837009WMQI -- --.- ..
WOODVILLE101/24.725410WLLW .-.. .-.. .--

Airport Services

Runway Information

Runway 17/35

Dimensions: 3450 x 55 ft. / 1052 x 17 m
Surface: asphalt
RUNWAY 17  RUNWAY 35
Traffic pattern: leftright
RY 17/35 ALL TRAFFIC REMAIN EAST OF ARPT SO AS TO AVOID WILDLIFE SANCTUARY.

Airport Ownership and Management from official FAA records

Ownership: Privately-owned
Owner: TURNPIKE PROPERTIES LLC
4400 SILAS CREEK PARKWAY, SUITE 302
WINSTON SALEM, NC 27104
Phone (336) 722-2236
Manager: ATLANTIC REALTY OF THE OUTER BANKS
4729 NORTH CROATAN HIGHWAY
KITTY HAWK 27949
Phone (252) 489-1994

Additional Remarks

MNT 122.8 FOR TRFC INVOF DARE COUNTY REGIONAL ARPT.
MNT 122.9 WHEN IN TFC PAT.
WRITTEN PERMISSION RQRD TO LND. LDG FEES FOR ALL ACFT. FOR ARPT OPNS RQMNTS, CTC ARPT MGR AT 252-489-1994 OR 919-389-3655
NO PRKG OF ACFT OR CARS.
FOR CD CTC WASHINGTON ARTCC AT 703-771-3587.

Instrument Procedures

There are no published instrument procedures at 7NC2.

Some nearby airports with instrument procedures:

KONX - Currituck County Regional Airport (14 nm NW)
KFFA - First Flight Airport (15 nm S)
KECG - Elizabeth City Coast Guard Air Station/Regional Airport (19 nm W)
KMQI - Dare County Regional Airport (21 nm S)
KCPK - Chesapeake Regional Airport (36 nm NW)
 
Loc | Ops | Rwys | IFR | FBO | Links
Com | Nav | Svcs | Stats | Notes
Area around 7NC2 (Pine Island Airport)
 
Road maps at: MapQuest Bing Google
 
Aerial photo
WARNING: Photo may not be current or correct
Aerial photo of 7NC2 (Pine Island Airport)
Do you have a better or more recent aerial photo of Pine Island Airport that you would like to share? If so, please send us your photo.

 
Sectional chart

 
Airport distance calculator
Flying to Pine Island Airport? Find the distance to fly.

From to 7NC2

Sunrise and sunset
Times for 26-May-2022
 Local
(UTC-4)
 Zulu
(UTC)
Morning civil twilight05:2109:21
Sunrise05:5109:51
Sunset20:1000:10
Evening civil twilight20:3900:39

Current date and time
Zulu (UTC)  26-May-2022 12:39:59
Local (UTC-4)  26-May-2022 08:39:59
 
METAR
KONX 
14nm NW 
261215Z AUTO 02005KT 4SM BR OVC004 18/18 A3021 RMK AO2 T01760176
KFFA 
15nm S 
261215Z AUTO 00000KT 1/4SM FG OVC003 18/18 A3019 RMK AO2 T01800180
KECG 
19nm W 
261154Z 36006KT 1SM BR OVC003 18/18 A3021 RMK AO2 SLP231 60001 70010 T01830178 10183 20172 53007
KMQI 
21nm S 
261215Z AUTO 00000KT 10SM OVC003 19/19 A3021 RMK AO2 T01870185
TAF
KECG 
19nm W 
261123Z 2612/2712 03009KT 4SM BR VCSH SCT003 OVC004 TEMPO 2612/2614 2SM BR BKN003 FM261400 13006KT 4SM -RA BR BKN005 FM261700 15006KT P6SM SCT007 BKN012 FM262300 14009KT P6SM SCT040
NOTAMs
Click for the latest NOTAMs
NOTAMs are issued by the DoD/FAA and will open in a separate window not controlled by AirNav.

 

 
 

Would you like to see your business listed on this page?

 If your business provides an interesting product or service to pilots, flight crews, aircraft, or users of the Pine Island Airport, you should consider listing it here.  To start the listing process, click on the button below
 
Add a business
 

Other Pages about Pine Island Airport

Update a link
 
Copyright © AirNav, LLC. All rights reserved. Privacy Policy  Contact